Time;durP1;ratioP1;P1;durP2;ratioP2;P2;SDS_P1;SDS_P2;PMS_P1;PMS_P2;Temp;Humidity;BMP_temperature;BMP_pressure;BME280_temperature;BME280_humidity;BME280_pressure;Samples;Min_cycle;Max_cycle;Signal;HPM_P1;HPM_P2
2022/10/04 00:01:27;;;;;;;7.60;6.73;;;;;;;8.43;100.00;97101.91;5029988;28;104336;-61
2022/10/04 00:04:07;;;;;;;8.00;7.20;;;;;;;8.35;100.00;97103.00;5030124;28;101942;-61
2022/10/04 00:06:35;;;;;;;6.73;6.10;;;;;;;8.31;100.00;97101.00;5030453;28;105058;-61
2022/10/04 00:09:12;;;;;;;6.97;6.37;;;;;;;8.37;100.00;97094.81;5029604;28;105006;-61
2022/10/04 00:11:45;;;;;;;6.70;6.07;;;;;;;8.38;100.00;97096.44;5030272;28;101870;-61
2022/10/04 00:14:18;;;;;;;5.73;5.23;;;;;;;8.29;100.00;97100.44;5033035;28;104814;-61
2022/10/04 00:16:46;;;;;;;5.70;5.20;;;;;;;8.12;100.00;97086.88;5030371;28;101996;-61
2022/10/04 00:19:38;;;;;;;6.20;5.60;;;;;;;8.23;100.00;97088.84;5031825;28;102282;-61
2022/10/04 00:22:27;;;;;;;5.63;5.23;;;;;;;8.10;100.00;97086.31;5029478;28;105419;-61
2022/10/04 00:25:33;;;;;;;5.03;4.60;;;;;;;7.98;100.00;97085.38;5029895;28;101902;-61
2022/10/04 00:28:32;;;;;;;4.87;4.47;;;;;;;7.96;100.00;97086.63;5028650;28;105270;-61
2022/10/04 00:31:14;;;;;;;5.60;4.93;;;;;;;7.77;100.00;97084.94;5023869;28;105151;-61
2022/10/04 00:33:43;;;;;;;4.67;4.30;;;;;;;7.76;100.00;97091.28;5029926;28;101971;-61
2022/10/04 00:36:39;;;;;;;5.20;4.80;;;;;;;7.83;100.00;97089.38;5029440;28;105916;-61
2022/10/04 00:39:40;;;;;;;5.70;5.20;;;;;;;7.85;100.00;97090.78;5030339;28;104990;-61
2022/10/04 00:42:40;;;;;;;5.13;4.73;;;;;;;7.68;100.00;97091.56;5029851;28;105418;-61
2022/10/04 00:45:19;;;;;;;5.13;4.73;;;;;;;7.70;100.00;97086.84;5028920;28;105773;-61
2022/10/04 00:48:31;;;;;;;5.87;5.33;;;;;;;7.71;100.00;97086.63;5029546;28;101852;-61
2022/10/04 00:51:04;;;;;;;5.33;4.70;;;;;;;7.73;100.00;97081.09;5029692;28;105016;-61
2022/10/04 00:53:45;;;;;;;4.93;4.53;;;;;;;7.56;100.00;97080.84;5030604;28;103175;-61
2022/10/04 00:56:19;;;;;;;5.43;5.03;;;;;;;7.46;100.00;97080.50;5029177;28;102010;-61
2022/10/04 00:59:10;;;;;;;4.83;4.43;;;;;;;7.47;100.00;97081.31;5029407;28;105099;-61
2022/10/04 01:01:37;;;;;;;5.00;4.50;;;;;;;7.49;100.00;97076.59;5028868;28;105282;-61
2022/10/04 01:04:07;;;;;;;5.03;4.53;;;;;;;7.49;100.00;97084.53;5033118;28;101979;-61
2022/10/04 01:06:36;;;;;;;6.03;4.90;;;;;;;7.49;100.00;97080.06;5028699;28;103821;-61
2022/10/04 01:09:08;;;;;;;4.87;4.47;;;;;;;7.35;100.00;97077.69;5029466;28;102078;-61
2022/10/04 01:11:38;;;;;;;4.17;3.87;;;;;;;7.32;100.00;97078.16;5029232;28;105123;-61
2022/10/04 01:14:11;;;;;;;4.63;4.27;;;;;;;7.35;100.00;97075.88;5028727;28;105535;-61
2022/10/04 01:16:39;;;;;;;7.03;4.80;;;;;;;7.37;100.00;97075.69;5029385;28;102002;-61
2022/10/04 01:19:31;;;;;;;5.27;4.77;;;;;;;7.24;100.00;97075.72;5028012;28;105191;-61
2022/10/04 01:22:10;;;;;;;4.57;4.17;;;;;;;7.25;100.00;97077.38;5028499;28;105554;-61
2022/10/04 01:24:39;;;;;;;4.60;4.20;;;;;;;7.21;100.00;97081.47;5032529;28;101913;-61
2022/10/04 01:27:32;;;;;;;4.47;4.17;;;;;;;7.12;100.00;97061.56;5028503;28;105127;-61
2022/10/04 01:30:00;;;;;;;4.70;4.30;;;;;;;7.08;100.00;97068.28;5028988;28;101892;-61
2022/10/04 01:32:29;;;;;;;4.80;4.40;;;;;;;7.07;100.00;97064.88;5029069;28;105105;-61
2022/10/04 01:34:57;;;;;;;5.67;4.10;;;;;;;6.96;100.00;97065.53;5028289;28;103952;-61
2022/10/04 01:37:27;;;;;;;3.80;3.50;;;;;;;6.86;100.00;97062.53;5028703;27;101876;-61
2022/10/04 01:39:56;;;;;;;4.20;3.80;;;;;;;6.90;100.00;97061.09;5028893;28;105658;-61
2022/10/04 01:42:29;;;;;;;4.27;3.97;;;;;;;6.87;100.00;97056.22;5027925;28;105449;-61
2022/10/04 01:45:02;;;;;;;5.13;4.20;;;;;;;6.86;100.00;97045.84;5028921;28;101827;-61
2022/10/04 01:47:35;;;;;;;5.50;4.87;;;;;;;6.95;100.00;97057.81;5031243;28;105874;-61
2022/10/04 01:50:08;;;;;;;4.63;4.23;;;;;;;6.87;100.00;97044.84;5028943;28;101794;-61
2022/10/04 01:52:40;;;;;;;4.53;4.13;;;;;;;6.91;100.00;97044.19;5028707;28;105134;-61
2022/10/04 01:55:14;;;;;;;4.07;3.73;;;;;;;6.93;100.00;97046.63;5029215;28;102764;-61
2022/10/04 01:57:49;;;;;;;5.30;4.80;;;;;;;6.93;100.00;97044.78;5028497;28;101814;-61
2022/10/04 02:00:16;;;;;;;4.57;4.17;;;;;;;6.92;100.00;97039.72;5028730;28;105361;-61
2022/10/04 02:02:51;;;;;;;4.70;4.30;;;;;;;7.06;100.00;97051.84;5029377;28;102625;-61
2022/10/04 02:05:26;;;;;;;4.47;4.17;;;;;;;7.09;100.00;97054.06;5028745;28;101946;-61
2022/10/04 02:07:55;;;;;;;5.97;4.80;;;;;;;7.17;100.00;97053.81;5028344;28;103809;-61
2022/10/04 02:10:26;;;;;;;4.90;4.50;;;;;;;7.19;100.00;97060.50;5031608;28;104102;-61
2022/10/04 02:12:56;;;;;;;4.97;4.30;;;;;;;7.09;100.00;97057.50;5028630;28;105155;-61
2022/10/04 02:15:25;;;;;;;5.30;4.87;;;;;;;7.15;100.00;97058.50;5027868;28;105532;-61
2022/10/04 02:17:57;;;;;;;4.97;4.47;;;;;;;7.09;100.00;97046.16;5028502;28;102010;-61
2022/10/04 02:20:26;;;;;;;6.63;5.57;;;;;;;7.13;100.00;97053.44;5028207;28;105623;-61
2022/10/04 02:22:58;;;;;;;6.00;4.97;;;;;;;7.19;100.00;97044.66;5027677;28;104960;-61
2022/10/04 02:25:27;;;;;;;5.50;4.87;;;;;;;7.22;100.00;97046.06;5028405;28;101833;-61
2022/10/04 02:27:56;;;;;;;5.97;5.47;;;;;;;7.23;100.00;97047.66;5029459;28;103888;-61
2022/10/04 02:30:24;;;;;;;7.00;5.80;;;;;;;7.23;100.00;97043.19;5027708;28;105768;-61
2022/10/04 02:32:59;;;;;;;5.90;5.40;;;;;;;7.28;100.00;97029.31;5033134;28;101774;-61
2022/10/04 02:35:30;;;;;;;6.33;5.73;;;;;;;7.33;100.00;97030.31;5027530;28;105390;-61
2022/10/04 02:38:10;;;;;;;6.70;6.10;;;;;;;7.39;100.00;97032.09;5028198;28;101872;-61
2022/10/04 02:40:47;;;;;;;7.97;6.80;;;;;;;7.45;100.00;97031.25;5028291;28;105931;-61
2022/10/04 02:43:19;;;;;;;7.07;6.37;;;;;;;7.54;100.00;97037.06;5027639;28;105096;-61
2022/10/04 02:45:50;;;;;;;7.20;6.50;;;;;;;7.58;100.00;97027.69;5027843;28;101925;-61
2022/10/04 02:48:38;;;;;;;7.60;6.90;;;;;;;7.60;100.00;97023.81;5028176;28;105254;-61
2022/10/04 02:51:20;;;;;;;7.53;6.83;;;;;;;7.65;100.00;97025.78;5029480;27;105618;-61
2022/10/04 02:56:46;;;;;;;8.10;7.30;;;;;;;7.79;100.00;97030.75;5033967;28;105393;-61
2022/10/04 02:59:16;;;;;;;7.27;6.67;;;;;;;7.81;100.00;97027.91;5031418;28;101920;-61
2022/10/04 03:01:50;;;;;;;8.27;7.43;;;;;;;7.88;100.00;97031.28;5031193;28;105271;-61
2022/10/04 03:04:22;;;;;;;7.77;7.07;;;;;;;7.94;100.00;97022.47;5030822;28;104142;-61
2022/10/04 03:06:50;;;;;;;8.57;7.70;;;;;;;7.98;100.00;97021.00;5031160;28;101862;-61
2022/10/04 03:09:20;;;;;;;8.27;7.47;;;;;;;8.02;100.00;97022.19;5031315;28;104822;-61
2022/10/04 03:11:50;;;;;;;9.00;8.20;;;;;;;8.08;100.00;97018.66;5030488;28;103772;-61
2022/10/04 03:14:20;;;;;;;8.53;7.73;;;;;;;8.08;100.00;97024.75;5031325;28;101956;-61
2022/10/04 03:16:52;;;;;;;8.20;7.50;;;;;;;8.03;100.00;97019.34;5031058;28;105204;-61
2022/10/04 03:19:22;;;;;;;9.53;8.63;;;;;;;8.00;100.00;97011.81;5033875;28;101804;-61
2022/10/04 03:21:52;;;;;;;8.83;8.03;;;;;;;8.02;100.00;97004.44;5030849;28;106616;-61
2022/10/04 03:24:23;;;;;;;50.80;10.73;;;;;;;8.02;100.00;97016.91;5030341;28;105528;-61
2022/10/04 03:26:54;;;;;;;10.47;9.47;;;;;;;8.07;100.00;97019.72;5030059;28;101883;-61
2022/10/04 03:29:25;;;;;;;9.00;8.10;;;;;;;8.00;100.00;97016.28;5032627;28;102591;-60
2022/10/04 03:31:56;;;;;;;9.73;8.53;;;;;;;8.00;100.00;97018.94;5030319;28;105269;-61
2022/10/04 03:34:26;;;;;;;27.10;10.53;;;;;;;7.93;100.00;97019.03;5030953;28;101723;-61
2022/10/04 03:36:57;;;;;;;11.93;10.73;;;;;;;7.87;100.00;97025.19;5029674;28;104856;-61
2022/10/04 03:39:31;;;;;;;44.17;11.20;;;;;;;7.83;100.00;97025.81;5032712;28;105431;-61
2022/10/04 03:42:03;;;;;;;41.07;19.17;;;;;;;7.68;100.00;97025.38;5029788;28;104045;-61
2022/10/04 03:44:30;;;;;;;27.10;10.50;;;;;;;7.55;100.00;97036.88;5029353;28;105266;-61
2022/10/04 03:46:59;;;;;;;41.57;11.60;;;;;;;7.49;100.00;97042.19;5029146;28;101766;-61
2022/10/04 03:49:33;;;;;;;51.03;10.37;;;;;;;7.29;100.00;97042.34;5029494;28;104414;-61
2022/10/04 03:52:02;;;;;;;10.70;9.60;;;;;;;7.37;100.00;97038.63;5029062;28;105770;-61
2022/10/04 03:54:30;;;;;;;15.80;10.37;;;;;;;7.44;100.00;97028.81;5030652;28;101883;-61
2022/10/04 03:57:01;;;;;;;10.40;9.40;;;;;;;7.44;100.00;97029.63;5030869;28;102902;-61
2022/10/04 03:59:29;;;;;;;10.10;9.20;;;;;;;7.46;100.00;97026.75;5030051;28;105031;-61
2022/10/04 04:02:08;;;;;;;10.57;9.57;;;;;;;7.46;100.00;97026.75;5033371;28;102204;-61
2022/10/04 04:04:43;;;;;;;9.57;8.67;;;;;;;7.39;100.00;97033.94;5029782;28;103977;-61
2022/10/04 04:07:14;;;;;;;10.20;9.17;;;;;;;7.46;100.00;97034.69;5030552;28;102171;-61
2022/10/04 04:09:45;;;;;;;10.23;9.07;;;;;;;7.44;100.00;97031.44;5030493;28;104088;-61
2022/10/04 04:12:19;;;;;;;9.47;8.63;;;;;;;7.43;100.00;97035.94;5029538;28;105002;-61
2022/10/04 04:14:50;;;;;;;10.57;9.00;;;;;;;7.39;100.00;97034.75;5030390;28;101891;-61
2022/10/04 04:17:30;;;;;;;10.77;9.77;;;;;;;7.36;100.00;97035.16;5030229;28;103521;-61
2022/10/04 04:19:59;;;;;;;11.67;10.07;;;;;;;7.35;100.00;97019.50;5030631;27;106047;-61
2022/10/04 04:22:30;;;;;;;9.80;8.90;;;;;;;7.30;100.00;97028.09;5029130;28;102185;-61
2022/10/04 04:25:00;;;;;;;10.03;9.13;;;;;;;7.35;100.00;97027.44;5032613;28;105358;-61
2022/10/04 04:27:34;;;;;;;9.97;9.07;;;;;;;7.34;100.00;97025.81;5030111;28;101834;-61
2022/10/04 04:30:02;;;;;;;18.37;8.17;;;;;;;7.26;100.00;97021.59;5030092;28;105250;-61
2022/10/04 04:32:33;;;;;;;12.53;7.00;;;;;;;7.18;100.00;97018.41;5029059;28;105545;-61
2022/10/04 04:35:05;;;;;;;7.10;6.57;;;;;;;7.19;100.00;97007.63;5030089;28;102054;-61
2022/10/04 04:37:34;;;;;;;136.47;12.30;;;;;;;7.31;100.00;97018.31;5029713;28;105221;-61
2022/10/04 04:40:19;;;;;;;35.03;8.93;;;;;;;7.31;100.00;97015.69;5028367;28;105398;-61
2022/10/04 04:42:49;;;;;;;143.03;12.27;;;;;;;7.08;100.00;97023.34;5029720;28;102143;-61
2022/10/04 04:45:20;;;;;;;20.70;12.27;;;;;;;7.03;100.00;97021.34;5030612;28;102853;-61
2022/10/04 04:47:50;;;;;;;13.90;11.53;;;;;;;6.99;100.00;97024.63;5033127;27;103103;-61
2022/10/04 04:50:21;;;;;;;10.40;9.47;;;;;;;6.97;100.00;97022.19;5030217;28;104576;-61
2022/10/04 04:52:52;;;;;;;51.43;10.00;;;;;;;6.99;100.00;97024.63;5030979;27;103233;-61
2022/10/04 04:55:21;;;;;;;65.13;11.20;;;;;;;6.90;100.00;97025.91;5030409;28;101953;-61
2022/10/04 04:58:18;;;;;;;18.40;10.67;;;;;;;6.91;100.00;97022.22;5029788;28;104680;-61
2022/10/04 05:00:53;;;;;;;52.20;12.10;;;;;;;6.89;100.00;97026.94;5028376;28;103852;-61
2022/10/04 05:03:22;;;;;;;11.33;10.10;;;;;;;6.89;100.00;97037.50;5030182;28;101848;-63
2022/10/04 05:06:29;;;;;;;13.83;11.30;;;;;;;6.90;100.00;97044.41;5011877;28;106913;-63
2022/10/04 05:08:56;;;;;;;16.03;12.80;;;;;;;6.92;100.00;97040.53;5029902;28;102556;-63
2022/10/04 05:11:28;;;;;;;13.93;11.43;;;;;;;6.89;100.00;97040.16;5032290;28;101956;-62
2022/10/04 05:14:01;;;;;;;16.40;11.33;;;;;;;6.90;100.00;97041.75;5027459;27;106131;-63
2022/10/04 05:16:43;;;;;;;21.23;11.90;;;;;;;6.86;100.00;97037.91;5030079;28;101725;-63
2022/10/04 05:19:15;;;;;;;16.00;9.90;;;;;;;6.88;100.00;97033.25;5028696;28;105546;-62
2022/10/04 05:21:47;;;;;;;12.37;10.63;;;;;;;6.89;100.00;97035.69;5028610;28;105312;-62
2022/10/04 05:24:19;;;;;;;26.43;9.93;;;;;;;6.89;100.00;97033.03;5028413;28;101874;-63
2022/10/04 05:27:01;;;;;;;9.60;8.67;;;;;;;7.00;100.00;97042.13;5029388;28;105229;-63
2022/10/04 05:29:35;;;;;;;26.83;8.67;;;;;;;7.04;100.00;97036.19;5030258;28;102838;-63
2022/10/04 05:32:21;;;;;;;8.50;7.70;;;;;;;7.12;100.00;97032.47;5032503;28;101834;-63
2022/10/04 05:34:51;;;;;;;8.30;7.50;;;;;;;7.21;100.00;97028.56;5028664;28;105114;-63
2022/10/04 05:37:52;;;;;;;8.07;7.37;;;;;;;7.20;100.00;97045.47;5028978;28;101706;-62
2022/10/04 05:40:32;;;;;;;8.60;7.87;;;;;;;7.23;100.00;97050.31;5029186;28;105244;-63
2022/10/04 05:43:00;;;;;;;16.27;10.90;;;;;;;7.15;100.00;97050.59;5028533;28;105163;-63
2022/10/04 05:45:30;;;;;;;10.87;9.87;;;;;;;7.19;100.00;97055.22;5029327;27;102122;-63
2022/10/04 05:48:01;;;;;;;19.87;9.60;;;;;;;7.12;100.00;97040.41;5028709;28;105486;-63
2022/10/04 05:50:40;;;;;;;10.70;8.53;;;;;;;7.21;100.00;97039.16;5028502;28;104341;-62
2022/10/04 05:53:26;;;;;;;31.67;11.87;;;;;;;7.18;100.00;97027.16;5030484;28;102189;-63
2022/10/04 05:56:40;;;;;;;12.80;11.50;;;;;;;7.36;100.00;97029.09;5030723;28;104826;-63
2022/10/04 05:59:18;;;;;;;10.10;8.37;;;;;;;7.22;100.00;97030.19;5027922;28;101767;-63
2022/10/04 06:01:57;;;;;;;10.33;8.13;;;;;;;7.25;100.00;97019.19;5030263;28;103015;-63
2022/10/04 06:04:48;;;;;;;8.23;7.53;;;;;;;7.37;100.00;97028.06;5029773;28;102756;-63
2022/10/04 06:07:25;;;;;;;34.37;9.77;;;;;;;7.44;100.00;97042.03;5028791;28;101894;-63
2022/10/04 06:10:06;;;;;;;35.33;8.63;;;;;;;7.32;100.00;97049.03;5028292;28;104906;-63
2022/10/04 06:12:46;;;;;;;11.60;8.50;;;;;;;7.33;100.00;97042.72;5027583;28;105704;-63
2022/10/04 06:15:41;;;;;;;8.07;7.37;;;;;;;7.38;100.00;97040.25;5028407;28;101794;-62
2022/10/04 06:18:29;;;;;;;67.87;9.30;;;;;;;7.35;100.00;97041.50;5028413;28;105556;-63
2022/10/04 06:21:23;;;;;;;7.17;6.57;;;;;;;7.40;100.00;97039.00;5031312;28;105120;-63
2022/10/04 06:23:58;;;;;;;7.90;7.20;;;;;;;7.38;100.00;97046.38;5028584;27;103592;-63
2022/10/04 06:26:31;;;;;;;9.07;7.40;;;;;;;7.28;100.00;97059.25;5031628;28;105040;-63
2022/10/04 06:29:01;;;;;;;15.73;8.77;;;;;;;7.36;100.00;97047.59;5031607;28;101891;-63
2022/10/04 06:31:54;;;;;;;8.13;7.37;;;;;;;7.47;100.00;97047.69;5031325;28;104038;-63
2022/10/04 06:34:50;;;;;;;8.73;7.20;;;;;;;7.53;100.00;97061.94;5033109;28;102695;-63
2022/10/04 06:37:54;;;;;;;8.30;7.33;;;;;;;7.76;100.00;97048.91;5031438;27;101861;-63
2022/10/04 06:40:37;;;;;;;9.27;7.83;;;;;;;7.72;100.00;97053.84;5031849;28;105463;-62
2022/10/04 06:43:22;;;;;;;12.60;7.30;;;;;;;7.72;100.00;97050.38;5031214;28;105749;-63
2022/10/04 06:46:04;;;;;;;9.33;8.37;;;;;;;7.69;100.00;97042.88;5033736;28;102840;-63
2022/10/04 06:49:03;;;;;;;12.00;9.77;;;;;;;7.85;100.00;97042.31;5031301;28;105325;-63
2022/10/04 06:52:08;;;;;;;11.30;10.30;;;;;;;7.89;100.00;97043.50;5001223;28;101846;-62
2022/10/04 06:55:03;;;;;;;11.03;7.70;;;;;;;7.94;100.00;97038.34;4985935;28;105137;-63
2022/10/04 06:57:50;;;;;;;8.00;7.30;;;;;;;7.82;100.00;97042.75;5030166;28;105808;-63
2022/10/04 07:00:21;;;;;;;7.93;7.23;;;;;;;7.88;100.00;97036.56;5032944;28;101675;-63
2022/10/04 07:02:53;;;;;;;7.30;6.67;;;;;;;8.05;100.00;97037.63;5031161;28;105563;-62
2022/10/04 07:05:30;;;;;;;8.33;7.63;;;;;;;8.26;100.00;97043.38;5027412;28;104953;-71
2022/10/04 07:08:11;;;;;;;8.40;7.60;;;;;;;8.24;100.00;97041.97;5007658;28;101968;-61
2022/10/04 07:10:49;;;;;;;8.23;7.43;;;;;;;8.53;100.00;97030.63;5034050;28;105867;-62
2022/10/04 07:13:30;;;;;;;10.73;7.47;;;;;;;8.56;100.00;97038.16;5030219;28;101999;-61
2022/10/04 07:16:02;;;;;;;21.83;7.37;;;;;;;8.61;100.00;97033.78;5024415;28;105252;-61
2022/10/04 07:18:34;;;;;;;12.57;7.83;;;;;;;8.72;100.00;97032.25;5030046;28;105291;-62
2022/10/04 07:21:08;;;;;;;10.53;9.03;;;;;;;8.79;100.00;97035.63;5030875;28;101848;-62
2022/10/04 07:23:44;;;;;;;10.33;9.13;;;;;;;8.95;100.00;97040.31;5030606;28;105417;-62
2022/10/04 07:26:26;;;;;;;11.13;10.03;;;;;;;9.00;100.00;97030.63;5028205;28;105150;-62
2022/10/04 07:31:42;;;;;;;10.43;9.43;;;;;;;8.86;100.00;97039.81;5010567;28;103978;-62
2022/10/04 07:34:15;;;;;;;10.63;9.33;;;;;;;9.03;100.00;97046.13;5023168;28;105534;-61
2022/10/04 07:36:47;;;;;;;14.70;8.90;;;;;;;9.06;100.00;97052.81;5030369;27;104719;-61
2022/10/04 07:39:22;;;;;;;16.37;8.37;;;;;;;8.99;100.00;97049.44;5030183;28;104269;-61
2022/10/04 07:41:53;;;;;;;11.93;8.40;;;;;;;8.43;100.00;97046.25;5031117;28;101980;-60
2022/10/04 07:44:29;;;;;;;9.57;8.57;;;;;;;8.70;100.00;97044.91;5030957;28;105333;-61
2022/10/04 07:47:03;;;;;;;8.70;7.97;;;;;;;8.91;100.00;97039.97;5019430;28;105326;-61
2022/10/04 07:49:38;;;;;;;8.67;7.97;;;;;;;9.13;100.00;97046.41;5030772;28;103450;-60
2022/10/04 07:52:33;;;;;;;8.50;7.77;;;;;;;9.17;100.00;97039.59;5030791;28;104848;-61
2022/10/04 07:55:14;;;;;;;9.27;7.80;;;;;;;9.68;100.00;97041.69;5013462;28;105873;-60
2022/10/04 07:57:56;;;;;;;8.73;7.93;;;;;;;10.07;100.00;97030.41;5010045;28;104791;-61
2022/10/04 08:00:28;;;;;;;8.80;7.90;;;;;;;10.08;100.00;97022.22;5010048;28;105079;-60
2022/10/04 08:03:14;;;;;;;8.27;7.43;;;;;;;10.05;100.00;97027.19;5025700;28;101906;-60
2022/10/04 08:06:14;;;;;;;9.60;7.73;;;;;;;9.86;100.00;97041.63;5032301;28;102629;-60
2022/10/04 08:09:08;;;;;;;8.47;7.67;;;;;;;10.13;100.00;97059.56;5031558;28;102918;-61
2022/10/04 08:11:48;;;;;;;11.60;8.60;;;;;;;10.14;100.00;97052.41;5022744;28;102194;-61
2022/10/04 08:14:27;;;;;;;12.83;9.77;;;;;;;9.53;100.00;97055.41;5030544;28;104758;-59
2022/10/04 08:17:08;;;;;;;12.97;9.60;;;;;;;9.61;100.00;97060.41;5031343;28;103348;-59
2022/10/04 08:19:48;;;;;;;11.77;8.60;;;;;;;9.64;100.00;97072.38;5034092;28;101679;-59
2022/10/04 08:22:28;;;;;;;9.40;8.43;;;;;;;10.06;100.00;97071.31;5029474;28;105070;-59
2022/10/04 08:25:05;;;;;;;8.47;7.63;;;;;;;9.82;100.00;97065.13;5031948;28;101712;-59
2022/10/04 08:31:10;;;;;;;9.20;7.13;;;;;;;10.05;100.00;97064.41;5029638;28;105638;-58
2022/10/04 08:33:56;;;;;;;8.47;7.57;;;;;;;10.21;100.00;97069.84;5031181;28;101842;-59
2022/10/04 08:36:52;;;;;;;8.33;7.63;;;;;;;9.92;100.00;97070.69;5030151;28;105750;-60
2022/10/04 08:39:36;;;;;;;8.70;7.53;;;;;;;10.06;100.00;97072.16;5029330;28;105459;-60
2022/10/04 08:42:32;;;;;;;8.30;7.60;;;;;;;10.10;100.00;97068.00;5030186;28;101942;-60
2022/10/04 08:45:42;;;;;;;8.80;8.00;;;;;;;10.32;100.00;97061.06;5032781;28;105220;-59
2022/10/04 08:48:42;;;;;;;9.27;8.37;;;;;;;10.23;100.00;97067.75;5028667;27;102117;-59
2022/10/04 08:51:50;;;;;;;9.40;8.40;;;;;;;10.25;100.00;97062.22;5029956;28;105280;-59
2022/10/04 08:54:56;;;;;;;10.03;8.57;;;;;;;10.15;100.00;97075.28;5030646;28;102888;-59
2022/10/04 08:58:01;;;;;;;8.73;7.93;;;;;;;10.28;100.00;97075.84;5029748;28;102080;-59
2022/10/04 09:00:48;;;;;;;9.40;8.50;;;;;;;10.36;100.00;97069.38;5026116;28;105208;-59
2022/10/04 09:03:43;;;;;;;9.40;8.50;;;;;;;10.19;100.00;97068.47;5029048;28;105222;-59
2022/10/04 09:06:38;;;;;;;9.23;8.27;;;;;;;10.37;100.00;97065.66;5029526;28;101937;-58
2022/10/04 09:09:38;;;;;;;9.30;8.40;;;;;;;10.67;100.00;97053.84;5029614;28;105404;-58
2022/10/04 09:12:43;;;;;;;9.60;8.70;;;;;;;10.72;100.00;97042.47;5032469;28;105010;-58
2022/10/04 09:15:53;;;;;;;11.30;8.80;;;;;;;10.67;100.00;97050.34;5063655;27;105729;-59
2022/10/04 09:18:44;;;;;;;10.00;8.00;;;;;;;10.81;100.00;97049.06;5028794;28;105159;-59
2022/10/04 09:21:27;;;;;;;8.53;7.73;;;;;;;10.94;100.00;97062.91;5031053;27;101902;-59
2022/10/04 09:24:16;;;;;;;8.87;7.97;;;;;;;10.95;100.00;97058.41;5029366;28;105132;-59
2022/10/04 09:27:13;;;;;;;8.27;7.47;;;;;;;11.42;100.00;97050.00;5042392;27;105607;-59
2022/10/04 09:30:01;;;;;;;8.60;7.63;;;;;;;11.72;100.00;97049.75;5014394;28;101884;-59
2022/10/04 09:32:58;;;;;;;9.73;7.60;;;;;;;11.69;100.00;97055.53;5029278;28;105409;-59
2022/10/04 09:36:07;;;;;;;8.07;7.30;;;;;;;11.70;100.00;97060.63;5015979;28;105671;-59
2022/10/04 09:38:52;;;;;;;7.70;6.77;;;;;;;11.89;100.00;97053.22;5017134;27;101896;-59
2022/10/04 09:41:46;;;;;;;7.37;6.67;;;;;;;11.83;100.00;97032.88;5028455;28;105119;-59
2022/10/04 09:44:54;;;;;;;7.03;6.43;;;;;;;11.96;100.00;97033.34;5030584;28;101872;-59
2022/10/04 09:47:36;;;;;;;8.70;6.60;;;;;;;12.33;100.00;97034.41;5010028;28;101732;-59
2022/10/04 09:50:40;;;;;;;6.73;6.13;;;;;;;12.33;100.00;97030.97;5023829;28;102817;-59
2022/10/04 09:53:29;;;;;;;6.93;6.40;;;;;;;12.73;100.00;97031.50;5030295;28;102034;-59
2022/10/04 09:56:35;;;;;;;6.87;6.20;;;;;;;12.45;100.00;97037.81;5010196;28;102810;-59
2022/10/04 09:59:31;;;;;;;7.87;6.50;;;;;;;12.76;100.00;97031.00;5002575;28;103319;-59
2022/10/04 10:02:27;;;;;;;7.13;6.53;;;;;;;13.07;100.00;97025.81;4981827;28;103198;-60
2022/10/04 10:05:19;;;;;;;6.67;6.07;;;;;;;13.29;100.00;97023.09;5023342;28;106545;-60
2022/10/04 10:08:06;;;;;;;6.30;5.80;;;;;;;13.45;100.00;97022.19;5027332;27;102052;-59
2022/10/04 10:13:45;;;;;;;7.20;6.00;;;;;;;13.54;100.00;97020.66;5029755;27;102655;-59
2022/10/04 10:16:39;;;;;;;6.20;5.60;;;;;;;13.74;100.00;97016.31;5030046;28;101707;-60
2022/10/04 10:19:28;;;;;;;7.00;6.30;;;;;;;13.70;100.00;97011.72;5028618;28;103588;-60
2022/10/04 10:22:27;;;;;;;6.23;5.63;;;;;;;14.38;100.00;97009.84;5029454;28;103350;-59
2022/10/04 10:25:21;;;;;;;5.77;5.30;;;;;;;14.79;100.00;97014.38;5028387;28;102024;-59
2022/10/04 10:28:31;;;;;;;5.57;4.90;;;;;;;15.19;100.00;97011.81;5031169;28;105107;-59
2022/10/04 10:31:12;;;;;;;5.47;4.97;;;;;;;15.42;100.00;97015.94;5020633;28;102003;-59
2022/10/04 10:34:07;;;;;;;5.27;4.80;;;;;;;15.48;100.00;97007.59;5028469;28;103625;-60
2022/10/04 10:36:46;;;;;;;5.10;4.50;;;;;;;15.46;100.00;97019.66;5025955;28;105248;-59
2022/10/04 10:39:46;;;;;;;6.73;4.50;;;;;;;15.38;100.00;97012.94;5028405;28;101841;-59
2022/10/04 10:42:47;;;;;;;4.90;4.50;;;;;;;15.22;100.00;97013.16;5028433;28;107227;-59
2022/10/04 10:45:22;;;;;;;4.40;4.00;;;;;;;14.57;100.00;97011.03;5027902;28;105495;-59
2022/10/04 10:47:55;;;;;;;5.17;4.70;;;;;;;14.25;100.00;97017.53;5028152;28;101927;-59
2022/10/04 10:50:57;;;;;;;5.03;4.53;;;;;;;14.74;100.00;97016.19;5028048;28;105172;-59
2022/10/04 10:54:04;;;;;;;4.97;3.80;;;;;;;15.26;100.00;97008.91;5031017;28;105583;-59
2022/10/04 10:56:42;;;;;;;4.30;3.90;;;;;;;15.51;100.00;97011.63;4981438;28;105179;-59
2022/10/04 10:59:49;;;;;;;3.93;3.63;;;;;;;15.57;100.00;97013.25;5029180;28;103176;-59
2022/10/04 11:02:53;;;;;;;4.87;3.80;;;;;;;15.79;100.00;97003.91;5009617;28;101852;-59
2022/10/04 11:05:56;;;;;;;4.10;3.70;;;;;;;16.27;100.00;97013.25;5018156;28;103959;-59
2022/10/04 11:08:56;;;;;;;3.83;3.57;;;;;;;15.48;100.00;97009.50;5013433;28;105460;-59
2022/10/04 11:11:46;;;;;;;3.63;3.33;;;;;;;15.58;100.00;97012.22;5030811;27;101709;-59
2022/10/04 11:14:36;;;;;;;4.00;3.30;;;;;;;15.72;100.00;97007.91;5032991;28;101811;-59
2022/10/04 11:17:29;;;;;;;4.07;3.30;;;;;;;15.51;100.00;97017.00;5032318;28;102570;-59
2022/10/04 11:20:26;;;;;;;3.90;3.50;;;;;;;15.62;100.00;97010.56;5034707;28;101885;-59
2022/10/04 11:23:41;;;;;;;3.77;3.10;;;;;;;16.18;100.00;97004.94;5032187;28;102552;-59
2022/10/04 11:26:50;;;;;;;3.83;3.33;;;;;;;15.98;100.00;97001.47;5029193;28;101829;-59
2022/10/04 11:29:35;;;;;;;3.93;3.50;;;;;;;16.44;100.00;96993.13;5031152;28;105416;-59
2022/10/04 11:32:35;;;;;;;4.33;3.37;;;;;;;17.02;100.00;96997.75;5032093;27;103034;-59
2022/10/04 11:35:43;;;;;;;3.03;2.47;;;;;;;17.09;100.00;96987.50;5029987;27;101782;-59
2022/10/04 11:38:26;;;;;;;2.77;1.77;;;;;;;17.31;100.00;96989.78;4989341;28;102845;-59
2022/10/04 11:41:15;;;;;;;3.17;1.83;;;;;;;17.70;100.00;96990.63;5029305;27;102603;-59
2022/10/04 11:44:34;;;;;;;1.57;1.43;;;;;;;18.06;100.00;96995.47;5030489;28;101852;-59
2022/10/04 11:47:09;;;;;;;2.80;1.67;;;;;;;17.74;100.00;96986.31;5012904;28;103484;-59
2022/10/04 11:50:10;;;;;;;1.90;1.60;;;;;;;18.07;100.00;96990.88;5023904;28;102117;-58
2022/10/04 11:53:06;;;;;;;3.23;1.60;;;;;;;18.29;100.00;96992.00;5030403;28;103496;-59
2022/10/04 11:55:53;;;;;;;4.63;1.70;;;;;;;18.58;100.00;96987.44;5028978;28;105398;-59
2022/10/04 11:58:32;;;;;;;2.13;1.90;;;;;;;18.70;100.00;96990.50;5028447;28;101977;-60
2022/10/04 12:01:29;;;;;;;3.33;1.70;;;;;;;18.74;100.00;96991.56;5029853;28;105077;-59
2022/10/04 12:04:20;;;;;;;1.57;1.40;;;;;;;18.82;100.00;96979.34;5028865;28;105797;-60
2022/10/04 12:07:05;;;;;;;2.47;1.80;;;;;;;18.98;100.00;96983.47;5030865;27;101986;-60
2022/10/04 12:09:41;;;;;;;2.20;1.70;;;;;;;19.05;100.00;96973.13;5029422;28;105674;-59
2022/10/04 12:12:38;;;;;;;1.50;1.40;;;;;;;19.33;100.00;96964.13;5032472;28;105413;-60
2022/10/04 12:15:34;;;;;;;2.83;1.73;;;;;;;19.11;100.00;96966.56;5029834;28;103710;-60
2022/10/04 12:18:33;;;;;;;2.83;1.60;;;;;;;19.36;100.00;96969.78;5028015;28;105621;-59
2022/10/04 12:21:30;;;;;;;2.20;1.40;;;;;;;18.94;100.00;96960.88;5029340;28;101950;-59
2022/10/04 12:24:08;;;;;;;1.90;1.50;;;;;;;19.23;100.00;96953.50;5030798;27;102770;-60
2022/10/04 12:26:51;;;;;;;2.70;1.63;;;;;;;18.83;100.00;96956.69;5028299;28;105559;-60
2022/10/04 12:29:58;;;;;;;2.30;1.70;;;;;;;18.40;100.00;96955.03;5029972;27;101929;-60
2022/10/04 12:32:32;;;;;;;3.17;1.77;;;;;;;18.63;100.00;96959.66;5026232;28;105911;-61
2022/10/04 12:35:09;;;;;;;2.57;1.50;;;;;;;19.10;100.00;96951.50;5030215;28;102689;-60
2022/10/04 12:38:04;;;;;;;1.50;1.37;;;;;;;19.72;100.00;96948.44;5032882;28;101735;-60
2022/10/04 12:40:37;;;;;;;4.50;1.60;;;;;;;20.16;100.00;96935.31;5028163;28;105936;-60